Time;durP1;ratioP1;P1;durP2;ratioP2;P2;SDS_P1;SDS_P2;PMS_P1;PMS_P2;Temp;Humidity;BMP_temperature;BMP_pressure;BME280_temperature;BME280_humidity;BME280_pressure;Samples;Min_cycle;Max_cycle;Signal;HPM_P1;HPM_P2
2021/11/15 00:00:23;;;;;;;;;;;;;;;13.96;58.73;102011.63;4157852;28;20133;-60
2021/11/15 00:02:25;;;;;;;;;;;;;;;13.96;58.74;102008.97;4157391;28;19917;-59
2021/11/15 00:04:27;;;;;;;;;;;;;;;13.94;58.72;102001.09;4157659;28;19917;-59
2021/11/15 00:06:29;;;;;;;;;;;;;;;13.92;58.46;102008.19;4157781;28;19963;-60
2021/11/15 00:08:31;;;;;;;;;;;;;;;13.92;58.44;102008.19;4157297;28;19918;-59
2021/11/15 00:10:33;;;;;;;;;;;;;;;13.91;58.45;102009.09;4157524;28;19924;-59
2021/11/15 00:12:35;;;;;;;;;;;;;;;13.90;58.42;102007.38;4157537;28;19963;-59
2021/11/15 00:14:37;;;;;;;;;;;;;;;13.89;58.63;102003.00;4157423;28;19929;-58
2021/11/15 00:16:39;;;;;;;;;;;;;;;13.88;58.37;102006.56;4157491;28;19921;-58
2021/11/15 00:18:41;;;;;;;;;;;;;;;13.87;58.68;102005.69;4158620;28;20016;-58
2021/11/15 00:20:44;;;;;;;;;;;;;;;13.86;58.65;101998.69;4157357;28;19917;-58
2021/11/15 00:22:45;;;;;;;;;;;;;;;13.85;58.70;101996.06;4157248;28;19925;-58
2021/11/15 00:24:47;;;;;;;;;;;;;;;13.84;58.57;102000.50;4157429;28;19917;-58
2021/11/15 00:26:49;;;;;;;;;;;;;;;13.82;58.67;102002.31;4157316;28;19917;-58
2021/11/15 00:28:51;;;;;;;;;;;;;;;13.82;58.49;101996.16;4157037;28;19917;-58
2021/11/15 00:30:53;;;;;;;;;;;;;;;13.81;58.68;101994.44;4157325;28;20048;-59
2021/11/15 00:32:55;;;;;;;;;;;;;;;13.80;58.55;101997.97;4157508;28;20205;-59
2021/11/15 00:34:57;;;;;;;;;;;;;;;13.79;58.79;102006.81;4161772;28;19924;-58
2021/11/15 00:36:59;;;;;;;;;;;;;;;13.79;58.53;101998.88;4141190;28;20245;-59
2021/11/15 00:39:01;;;;;;;;;;;;;;;13.78;58.53;101997.16;4148039;28;19918;-58
2021/11/15 00:41:03;;;;;;;;;;;;;;;13.77;58.61;101998.06;4157015;28;19925;-58
2021/11/15 00:43:06;;;;;;;;;;;;;;;13.75;58.66;102000.75;4157077;28;19917;-58
2021/11/15 00:45:10;;;;;;;;;;;;;;;13.75;58.78;102006.03;4157086;28;19964;-59
2021/11/15 00:47:12;;;;;;;;;;;;;;;13.73;58.79;102006.09;4157135;28;20220;-58
2021/11/15 00:49:14;;;;;;;;;;;;;;;13.74;58.49;102006.94;4156653;28;19917;-58
2021/11/15 00:51:16;;;;;;;;;;;;;;;13.72;58.61;102000.84;4157033;28;19924;-58
2021/11/15 00:53:17;;;;;;;;;;;;;;;13.72;58.60;102008.78;4156864;28;19917;-58
2021/11/15 00:55:20;;;;;;;;;;;;;;;13.71;58.40;102004.41;4156704;28;19923;-60
2021/11/15 00:57:21;;;;;;;;;;;;;;;13.70;58.64;102002.66;4156997;28;20090;-58
2021/11/15 00:59:23;;;;;;;;;;;;;;;13.69;58.40;102007.09;4157015;28;20109;-58
2021/11/15 01:01:25;;;;;;;;;;;;;;;13.68;58.58;102002.72;4156661;28;19917;-58
2021/11/15 01:03:28;;;;;;;;;;;;;;;13.67;58.78;102008.03;4156517;28;19918;-59
2021/11/15 01:05:30;;;;;;;;;;;;;;;13.66;58.75;102007.16;4156549;28;19925;-58
2021/11/15 01:07:31;;;;;;;;;;;;;;;13.66;58.81;102011.59;4155753;28;19918;-58
2021/11/15 01:09:34;;;;;;;;;;;;;;;13.65;58.36;102009.88;4156343;28;19921;-59
2021/11/15 01:11:36;;;;;;;;;;;;;;;13.63;58.56;102011.69;4156755;28;19929;-58
2021/11/15 01:13:39;;;;;;;;;;;;;;;13.63;58.65;102009.03;4156684;28;19940;-58
2021/11/15 01:15:41;;;;;;;;;;;;;;;13.62;58.58;102008.19;4156624;28;20083;-58
2021/11/15 01:17:43;;;;;;;;;;;;;;;13.61;58.80;102011.72;4156684;28;19921;-59
2021/11/15 01:19:45;;;;;;;;;;;;;;;13.61;58.76;102010.84;4169492;28;19917;-58
2021/11/15 01:21:48;;;;;;;;;;;;;;;13.61;58.81;102011.72;4156320;28;19917;-58
2021/11/15 01:23:50;;;;;;;;;;;;;;;13.61;58.74;102018.78;4156652;28;19918;-58
2021/11/15 01:25:52;;;;;;;;;;;;;;;13.60;58.60;102015.28;4155336;28;19917;-59
2021/11/15 01:27:54;;;;;;;;;;;;;;;13.58;58.51;102012.69;4155490;28;19917;-59
2021/11/15 01:29:56;;;;;;;;;;;;;;;13.57;58.76;102013.59;4155247;28;19939;-59
2021/11/15 01:32:00;;;;;;;;;;;;;;;13.56;58.83;102011.84;4155099;28;19945;-59
2021/11/15 01:34:02;;;;;;;;;;;;;;;13.57;58.67;102007.41;4156237;28;19929;-58
2021/11/15 01:36:04;;;;;;;;;;;;;;;13.56;58.71;102008.31;4161530;28;19917;-58
2021/11/15 01:38:06;;;;;;;;;;;;;;;13.54;58.37;102011.00;4156192;28;19917;-58
2021/11/15 01:40:09;;;;;;;;;;;;;;;13.54;58.52;102007.50;4156277;28;19964;-58
2021/11/15 01:42:11;;;;;;;;;;;;;;;13.53;58.52;102017.19;4155898;28;19964;-58
2021/11/15 01:44:13;;;;;;;;;;;;;;;13.54;58.54;102010.16;4156433;28;19937;-58
2021/11/15 01:46:15;;;;;;;;;;;;;;;13.53;58.50;102019.00;4152918;28;19924;-59
2021/11/15 01:48:18;;;;;;;;;;;;;;;13.52;58.41;102019.91;4147188;28;19921;-59
2021/11/15 01:50:20;;;;;;;;;;;;;;;13.52;58.53;102017.25;4156212;28;19917;-59
2021/11/15 01:52:22;;;;;;;;;;;;;;;13.50;58.33;102017.31;4145235;28;19922;-58
2021/11/15 01:54:27;;;;;;;;;;;;;;;13.49;58.83;102014.72;4154769;28;19917;-59
2021/11/15 01:56:29;;;;;;;;;;;;;;;13.49;58.54;102018.22;4151119;28;20145;-60
2021/11/15 01:58:31;;;;;;;;;;;;;;;13.48;58.78;102013.81;4149591;28;19918;-59
2021/11/15 02:00:42;;;;;;;;;;;;;;;13.47;58.66;102012.09;4139814;28;19917;-59
2021/11/15 02:02:44;;;;;;;;;;;;;;;13.45;58.50;102013.94;4150464;28;19917;-58
2021/11/15 02:04:47;;;;;;;;;;;;;;;13.46;58.65;102007.69;4140676;28;20238;-59
2021/11/15 02:06:48;;;;;;;;;;;;;;;13.46;58.30;102007.69;4143655;28;19996;-59
2021/11/15 02:08:50;;;;;;;;;;;;;;;13.45;58.67;102010.41;4145911;28;19924;-58
2021/11/15 02:10:53;;;;;;;;;;;;;;;13.45;58.66;102006.00;4155689;28;20292;-59
2021/11/15 02:12:55;;;;;;;;;;;;;;;13.44;58.64;102016.59;4145986;28;20194;-59
2021/11/15 02:14:57;;;;;;;;;;;;;;;13.44;58.62;102013.94;4153474;28;19917;-58
2021/11/15 02:16:59;;;;;;;;;;;;;;;13.43;58.63;102018.38;4154464;28;19921;-59
2021/11/15 02:19:01;;;;;;;;;;;;;;;13.42;58.43;102012.19;4148318;28;19917;-59
2021/11/15 02:21:04;;;;;;;;;;;;;;;13.41;58.69;102017.53;4155875;28;19925;-59
2021/11/15 02:23:06;;;;;;;;;;;;;;;13.41;58.63;102015.78;4155499;28;19918;-59
2021/11/15 02:25:09;;;;;;;;;;;;;;;13.40;58.59;102016.69;4155639;28;19917;-58
2021/11/15 02:27:11;;;;;;;;;;;;;;;13.38;58.29;102015.84;4155719;28;19918;-59
2021/11/15 02:29:13;;;;;;;;;;;;;;;13.39;58.62;102027.28;4155510;28;19984;-58
2021/11/15 02:31:16;;;;;;;;;;;;;;;13.37;58.75;102024.66;4155651;28;20149;-59
2021/11/15 02:33:19;;;;;;;;;;;;;;;13.37;58.39;102013.22;4155232;28;19917;-59
2021/11/15 02:35:21;;;;;;;;;;;;;;;13.37;58.38;102018.50;4163434;28;19924;-58
2021/11/15 02:37:23;;;;;;;;;;;;;;;13.36;58.25;102014.13;4178581;28;19917;-59
2021/11/15 02:39:25;;;;;;;;;;;;;;;13.35;58.24;102012.38;4155372;28;20173;-59
2021/11/15 02:41:27;;;;;;;;;;;;;;;13.35;58.61;102015.03;4155400;28;19940;-58
2021/11/15 02:43:30;;;;;;;;;;;;;;;13.34;58.50;102013.28;4155149;28;20269;-57
2021/11/15 02:45:32;;;;;;;;;;;;;;;13.33;58.24;102008.91;4155507;28;19925;-59
2021/11/15 02:47:35;;;;;;;;;;;;;;;13.33;58.17;102014.19;4155301;28;19922;-59
2021/11/15 02:49:36;;;;;;;;;;;;;;;13.32;58.50;102008.06;4155478;28;20214;-58
2021/11/15 02:51:38;;;;;;;;;;;;;;;13.31;58.33;102013.38;4155413;28;20036;-58
2021/11/15 02:53:41;;;;;;;;;;;;;;;13.31;58.28;102010.75;4155155;28;19917;-58
2021/11/15 02:55:43;;;;;;;;;;;;;;;13.31;58.59;102013.38;4155388;28;19919;-59
2021/11/15 02:57:45;;;;;;;;;;;;;;;13.30;58.14;102009.00;4155406;28;19917;-58
2021/11/15 02:59:47;;;;;;;;;;;;;;;13.29;58.24;102012.56;4155139;28;19924;-58
2021/11/15 03:01:50;;;;;;;;;;;;;;;13.29;58.21;102008.13;4139023;28;19925;-58
2021/11/15 03:03:52;;;;;;;;;;;;;;;13.30;58.22;102011.66;4146161;28;19923;-58
2021/11/15 03:05:55;;;;;;;;;;;;;;;13.27;58.08;102016.09;4155519;28;19940;-59
2021/11/15 03:07:57;;;;;;;;;;;;;;;13.26;58.25;102010.84;4154472;28;19918;-58
2021/11/15 03:09:59;;;;;;;;;;;;;;;13.25;58.14;102015.25;4155136;28;19972;-58
2021/11/15 03:12:01;;;;;;;;;;;;;;;13.26;58.20;102008.22;4154197;28;19939;-58
2021/11/15 03:14:03;;;;;;;;;;;;;;;13.24;58.37;102015.31;4145135;28;19918;-59
2021/11/15 03:16:05;;;;;;;;;;;;;;;13.24;58.21;102010.03;4155199;28;19917;-59
2021/11/15 03:18:09;;;;;;;;;;;;;;;13.24;58.37;102012.66;4156977;28;19921;-58
2021/11/15 03:20:11;;;;;;;;;;;;;;;13.23;58.19;102017.09;4157192;28;20144;-58
2021/11/15 03:22:13;;;;;;;;;;;;;;;13.23;58.12;102010.94;4155383;28;19917;-58
2021/11/15 03:24:15;;;;;;;;;;;;;;;13.21;58.42;102013.63;4154993;28;19917;-58
2021/11/15 03:26:17;;;;;;;;;;;;;;;13.21;57.96;102008.31;4155153;28;19926;-58
2021/11/15 03:28:21;;;;;;;;;;;;;;;13.20;58.18;102009.22;4155169;28;19921;-58
2021/11/15 03:30:24;;;;;;;;;;;;;;;13.21;58.36;102010.97;4156687;28;20305;-57
2021/11/15 03:32:26;;;;;;;;;;;;;;;13.20;58.06;102019.81;4158424;28;19918;-57
2021/11/15 03:34:28;;;;;;;;;;;;;;;13.20;58.00;102022.44;4159079;28;20133;-58
2021/11/15 03:36:30;;;;;;;;;;;;;;;13.18;58.05;102016.31;4159408;28;19917;-58
2021/11/15 03:38:32;;;;;;;;;;;;;;;13.20;58.30;102024.22;4158175;28;19925;-58
2021/11/15 03:40:34;;;;;;;;;;;;;;;13.18;58.27;102021.59;4158072;28;19929;-58
2021/11/15 03:42:37;;;;;;;;;;;;;;;13.17;57.96;102022.53;4158257;28;19917;-58
2021/11/15 03:44:39;;;;;;;;;;;;;;;13.17;58.13;102019.91;4157873;28;20365;-58
2021/11/15 03:46:41;;;;;;;;;;;;;;;13.16;58.21;102012.88;4158269;28;19948;-58
2021/11/15 03:48:43;;;;;;;;;;;;;;;13.15;58.13;102016.41;4156919;28;19917;-58
2021/11/15 03:50:45;;;;;;;;;;;;;;;13.15;58.21;102015.53;4157848;28;20284;-59
2021/11/15 03:52:48;;;;;;;;;;;;;;;13.15;58.30;102015.53;4157933;28;19917;-58
2021/11/15 03:54:50;;;;;;;;;;;;;;;13.14;57.84;102012.03;4157884;28;19917;-58
2021/11/15 03:56:52;;;;;;;;;;;;;;;13.14;58.22;102013.81;4157865;28;19925;-57
2021/11/15 03:58:54;;;;;;;;;;;;;;;13.12;57.99;102019.13;4157804;28;19925;-58
2021/11/15 04:00:58;;;;;;;;;;;;;;;13.11;58.15;102017.41;4157524;28;19917;-58
2021/11/15 04:03:03;;;;;;;;;;;;;;;13.11;58.08;102030.63;4157403;28;19917;-58
2021/11/15 04:05:07;;;;;;;;;;;;;;;13.10;57.93;102026.25;4157539;28;19921;-58
2021/11/15 04:07:11;;;;;;;;;;;;;;;13.10;58.16;102029.72;4157886;28;19918;-58
2021/11/15 04:09:13;;;;;;;;;;;;;;;13.09;58.03;102032.41;4157588;28;19917;-58
2021/11/15 04:11:19;;;;;;;;;;;;;;;13.09;58.03;102029.78;4157562;28;19979;-58
2021/11/15 04:13:21;;;;;;;;;;;;;;;13.09;57.94;102028.00;4157526;28;19933;-58
2021/11/15 04:15:23;;;;;;;;;;;;;;;13.09;58.00;102029.78;4157748;28;20160;-58
2021/11/15 04:17:25;;;;;;;;;;;;;;;13.09;57.90;102025.34;4156127;28;19917;-58
2021/11/15 04:19:27;;;;;;;;;;;;;;;13.08;57.98;102031.53;4170052;28;19917;-58
2021/11/15 04:21:30;;;;;;;;;;;;;;;13.08;57.91;102026.25;4165914;28;19917;-58
2021/11/15 04:23:33;;;;;;;;;;;;;;;13.08;57.74;102025.41;4157399;28;19956;-58
2021/11/15 04:25:35;;;;;;;;;;;;;;;13.07;58.15;102028.94;4157390;28;19921;-58
2021/11/15 04:27:37;;;;;;;;;;;;;;;13.07;58.04;102026.31;4157167;28;19956;-59
2021/11/15 04:29:40;;;;;;;;;;;;;;;13.06;57.88;102030.72;4157186;28;20219;-58
2021/11/15 04:31:42;;;;;;;;;;;;;;;13.04;57.86;102027.25;4157008;28;19917;-58
2021/11/15 04:33:44;;;;;;;;;;;;;;;13.05;57.99;102030.75;4157162;28;20102;-59
2021/11/15 04:35:46;;;;;;;;;;;;;;;13.03;57.87;102019.38;4168655;28;19925;-58
2021/11/15 04:37:48;;;;;;;;;;;;;;;13.02;58.14;102023.78;4159116;28;19924;-58
2021/11/15 04:39:50;;;;;;;;;;;;;;;13.02;57.80;102028.19;4157306;28;19918;-58
2021/11/15 04:41:52;;;;;;;;;;;;;;;13.02;58.11;102015.00;4155941;28;19917;-59
2021/11/15 04:43:54;;;;;;;;;;;;;;;13.01;57.69;102015.91;4152134;28;19918;-59
2021/11/15 04:45:56;;;;;;;;;;;;;;;13.00;57.81;102011.50;4141165;28;19917;-59
2021/11/15 04:47:58;;;;;;;;;;;;;;;12.99;58.00;102015.06;4149601;28;19924;-59
2021/11/15 04:50:00;;;;;;;;;;;;;;;12.98;57.98;102008.03;4144418;28;20257;-59
2021/11/15 04:52:03;;;;;;;;;;;;;;;12.97;57.94;102008.97;4144218;28;20194;-59
2021/11/15 04:54:05;;;;;;;;;;;;;;;12.97;57.78;102009.81;4146311;28;19924;-59
2021/11/15 04:56:07;;;;;;;;;;;;;;;12.95;57.66;102001.06;4157273;28;20060;-60
2021/11/15 04:58:10;;;;;;;;;;;;;;;12.94;57.69;102008.13;4148294;28;19917;-58
2021/11/15 05:00:14;;;;;;;;;;;;;;;12.93;57.69;102003.75;4152438;28;20378;-59
2021/11/15 05:02:16;;;;;;;;;;;;;;;12.93;57.89;102003.75;4155121;28;19930;-58
2021/11/15 05:04:18;;;;;;;;;;;;;;;12.92;57.65;101996.72;4151455;28;20087;-59
2021/11/15 05:06:20;;;;;;;;;;;;;;;12.91;57.90;101996.78;4140596;28;20260;-58
2021/11/15 05:08:22;;;;;;;;;;;;;;;12.89;57.81;102002.09;4145752;28;19917;-59
2021/11/15 05:10:25;;;;;;;;;;;;;;;12.89;57.87;102002.09;4146094;28;19924;-59
2021/11/15 05:12:28;;;;;;;;;;;;;;;12.88;57.72;102002.13;4140548;28;19976;-58
2021/11/15 05:14:30;;;;;;;;;;;;;;;12.87;57.85;102003.91;4153071;28;20209;-58
2021/11/15 05:16:33;;;;;;;;;;;;;;;12.87;58.04;102003.03;4156878;28;19921;-58
2021/11/15 05:18:35;;;;;;;;;;;;;;;12.85;57.66;102002.22;4157821;28;19925;-58
2021/11/15 05:20:37;;;;;;;;;;;;;;;12.85;58.00;102010.13;4156560;28;19917;-58
2021/11/15 05:22:39;;;;;;;;;;;;;;;12.84;57.68;102006.59;4156724;28;19917;-58
2021/11/15 05:24:41;;;;;;;;;;;;;;;12.83;57.92;102006.66;4152420;28;20086;-58
2021/11/15 05:26:43;;;;;;;;;;;;;;;12.83;57.76;102015.44;4140253;28;19924;-58
2021/11/15 05:28:45;;;;;;;;;;;;;;;12.82;57.92;102003.16;4142804;28;19921;-58
2021/11/15 05:30:46;;;;;;;;;;;;;;;12.82;57.48;102012.81;4148301;28;19918;-58
2021/11/15 05:32:51;;;;;;;;;;;;;;;12.82;57.96;102015.47;4140417;28;20232;-58
2021/11/15 05:34:53;;;;;;;;;;;;;;;12.80;58.07;102012.88;4155830;28;19917;-58
2021/11/15 05:36:55;;;;;;;;;;;;;;;12.79;58.05;102011.13;4156979;28;19924;-58
2021/11/15 05:38:57;;;;;;;;;;;;;;;12.78;57.87;102017.31;4156216;28;19923;-59
2021/11/15 05:41:00;;;;;;;;;;;;;;;12.77;57.65;102021.75;4156342;28;19918;-59
2021/11/15 05:43:02;;;;;;;;;;;;;;;12.77;57.80;102015.56;4156495;28;19918;-59
2021/11/15 05:45:05;;;;;;;;;;;;;;;12.76;57.75;102024.41;4155909;28;20106;-59
2021/11/15 05:47:07;;;;;;;;;;;;;;;12.74;57.54;102020.94;4156253;28;19963;-59
2021/11/15 05:49:08;;;;;;;;;;;;;;;12.73;57.82;102022.69;4156209;28;19925;-59
2021/11/15 05:51:10;;;;;;;;;;;;;;;12.72;57.40;102023.63;4156138;28;20272;-59
2021/11/15 05:53:14;;;;;;;;;;;;;;;12.72;57.78;102033.31;4155815;28;19964;-58
2021/11/15 05:55:18;;;;;;;;;;;;;;;12.70;57.75;102033.34;4156088;28;20101;-58
2021/11/15 05:57:20;;;;;;;;;;;;;;;12.70;57.91;102030.69;4156141;28;19917;-58
2021/11/15 05:59:22;;;;;;;;;;;;;;;12.70;57.64;102035.13;4155949;28;19925;-59
2021/11/15 06:01:24;;;;;;;;;;;;;;;12.69;57.86;102034.25;4156021;28;19956;-58
2021/11/15 06:03:27;;;;;;;;;;;;;;;12.69;57.63;102033.38;4155940;28;20205;-58
2021/11/15 06:05:29;;;;;;;;;;;;;;;12.69;57.76;102036.88;4155728;28;19917;-58
2021/11/15 06:07:31;;;;;;;;;;;;;;;12.68;57.80;102034.28;4155915;28;20000;-59
2021/11/15 06:09:33;;;;;;;;;;;;;;;12.67;57.72;102030.75;4155844;28;19925;-58
2021/11/15 06:11:35;;;;;;;;;;;;;;;12.66;57.68;102031.69;4155590;28;19922;-59
2021/11/15 06:13:37;;;;;;;;;;;;;;;12.66;57.93;102034.34;4155805;28;19956;-58
2021/11/15 06:15:39;;;;;;;;;;;;;;;12.65;57.67;102035.22;4155611;28;20144;-58
2021/11/15 06:17:41;;;;;;;;;;;;;;;12.65;57.65;102034.34;4155741;28;19959;-59
2021/11/15 06:19:43;;;;;;;;;;;;;;;12.64;57.75;102044.06;4168321;28;19932;-59
2021/11/15 06:21:46;;;;;;;;;;;;;;;12.65;57.95;102034.34;4155656;28;19917;-59
2021/11/15 06:23:48;;;;;;;;;;;;;;;12.64;57.95;102044.06;4155693;28;19917;-59
2021/11/15 06:25:50;;;;;;;;;;;;;;;12.64;57.61;102049.31;4155559;28;20153;-59
2021/11/15 06:27:52;;;;;;;;;;;;;;;12.62;57.70;102049.38;4155644;28;19924;-58
2021/11/15 06:29:54;;;;;;;;;;;;;;;12.63;57.59;102051.06;4155441;28;20141;-58
2021/11/15 06:31:56;;;;;;;;;;;;;;;12.62;57.68;102045.84;4155404;28;19940;-58
2021/11/15 06:33:58;;;;;;;;;;;;;;;12.61;57.82;102049.38;4155748;28;19956;-58
2021/11/15 06:36:00;;;;;;;;;;;;;;;12.60;57.66;102034.44;4160488;28;19964;-59
2021/11/15 06:38:02;;;;;;;;;;;;;;;12.61;57.94;102046.75;4155599;28;19917;-58
2021/11/15 06:40:05;;;;;;;;;;;;;;;12.61;57.70;102042.34;4155541;28;19925;-59
2021/11/15 06:42:07;;;;;;;;;;;;;;;12.60;57.95;102047.63;4155148;28;19917;-59
2021/11/15 06:44:09;;;;;;;;;;;;;;;12.59;57.95;102043.28;4155506;28;20113;-59
2021/11/15 06:46:11;;;;;;;;;;;;;;;12.58;57.92;102050.31;4155345;28;20162;-59
2021/11/15 06:48:13;;;;;;;;;;;;;;;12.58;57.72;102055.59;4155622;28;19918;-58
2021/11/15 06:50:17;;;;;;;;;;;;;;;12.58;57.81;102055.59;4155460;28;19918;-58
2021/11/15 06:52:20;;;;;;;;;;;;;;;12.58;57.63;102054.75;4155129;28;19917;-58
2021/11/15 06:54:22;;;;;;;;;;;;;;;12.57;57.79;102061.78;4155486;28;19918;-58
2021/11/15 06:56:24;;;;;;;;;;;;;;;12.57;57.67;102066.19;4155208;28;19925;-58
2021/11/15 06:58:27;;;;;;;;;;;;;;;12.56;57.59;102067.09;4155389;28;20111;-59
2021/11/15 07:00:29;;;;;;;;;;;;;;;12.55;57.87;102071.53;4155564;28;20270;-58
2021/11/15 07:02:31;;;;;;;;;;;;;;;12.55;57.82;102070.63;4155123;28;20071;-59
2021/11/15 07:04:33;;;;;;;;;;;;;;;12.54;57.67;102068.91;4155746;28;19917;-59
2021/11/15 07:06:36;;;;;;;;;;;;;;;12.53;57.55;102073.31;4158604;28;19924;-59
2021/11/15 07:08:38;;;;;;;;;;;;;;;12.53;57.68;102075.97;4158647;28;19917;-59
2021/11/15 07:10:40;;;;;;;;;;;;;;;12.53;57.90;102081.22;4158524;28;19962;-59
2021/11/15 07:12:42;;;;;;;;;;;;;;;12.52;57.70;102082.13;4158449;28;19924;-59
2021/11/15 07:14:44;;;;;;;;;;;;;;;12.52;57.47;102081.28;4158625;28;19918;-59
2021/11/15 07:16:46;;;;;;;;;;;;;;;12.52;57.70;102090.03;4158544;28;19921;-59
2021/11/15 07:18:52;;;;;;;;;;;;;;;12.51;57.86;102083.03;4162370;28;19917;-59
2021/11/15 07:20:54;;;;;;;;;;;;;;;12.50;57.69;102083.94;4158715;28;19917;-59
2021/11/15 07:22:56;;;;;;;;;;;;;;;12.50;58.02;102081.28;4158389;28;20177;-59
2021/11/15 07:24:59;;;;;;;;;;;;;;;12.50;57.93;102077.78;4158489;28;19928;-59
2021/11/15 07:27:01;;;;;;;;;;;;;;;12.49;58.04;102082.22;4158508;28;19972;-59
2021/11/15 07:29:03;;;;;;;;;;;;;;;12.50;57.84;102083.06;4158465;28;20143;-59
2021/11/15 07:31:05;;;;;;;;;;;;;;;12.49;57.87;102082.22;4158233;28;19917;-59
2021/11/15 07:33:07;;;;;;;;;;;;;;;12.49;57.81;102086.59;4158028;28;19929;-59
2021/11/15 07:35:09;;;;;;;;;;;;;;;12.47;57.68;102084.00;4164822;28;19917;-59
2021/11/15 07:37:11;;;;;;;;;;;;;;;12.47;57.98;102091.94;4166762;28;19973;-59
2021/11/15 07:39:13;;;;;;;;;;;;;;;12.48;57.70;102091.03;4158080;28;19918;-59
2021/11/15 07:41:17;;;;;;;;;;;;;;;12.46;57.83;102096.31;4158208;28;19956;-59
2021/11/15 07:43:20;;;;;;;;;;;;;;;12.48;57.95;102098.06;4157015;28;19921;-59
2021/11/15 07:45:23;;;;;;;;;;;;;;;12.46;57.92;102106.88;4158040;28;19956;-59
2021/11/15 07:47:25;;;;;;;;;;;;;;;12.45;57.55;102102.53;4158351;28;20086;-58
2021/11/15 07:49:27;;;;;;;;;;;;;;;12.46;57.83;102106.00;4157427;28;19917;-59
2021/11/15 07:51:30;;;;;;;;;;;;;;;12.46;57.66;102106.88;4157892;28;19971;-59
2021/11/15 07:53:36;;;;;;;;;;;;;;;12.44;57.81;102106.06;4157916;28;19917;-59
2021/11/15 07:55:40;;;;;;;;;;;;;;;12.45;57.68;102109.53;4156959;28;19990;-58
2021/11/15 07:57:42;;;;;;;;;;;;;;;12.45;57.81;102104.28;4157365;28;19932;-58
2021/11/15 07:59:45;;;;;;;;;;;;;;;12.45;58.05;102109.53;4157127;28;20327;-59
2021/11/15 08:01:48;;;;;;;;;;;;;;;12.46;57.28;102113.94;4142028;28;19918;-59
2021/11/15 08:03:50;;;;;;;;;;;;;;;12.45;57.66;102114.81;4148867;28;20097;-59
2021/11/15 08:05:52;;;;;;;;;;;;;;;12.46;57.60;102125.34;4158172;28;19968;-59
2021/11/15 08:07:54;;;;;;;;;;;;;;;12.47;57.35;102123.59;4158145;28;19956;-59
2021/11/15 08:09:57;;;;;;;;;;;;;;;12.46;57.61;102117.44;4158084;28;19917;-59
2021/11/15 08:12:01;;;;;;;;;;;;;;;12.46;57.38;102119.22;4158062;28;19918;-59
2021/11/15 08:14:03;;;;;;;;;;;;;;;12.47;57.33;102123.59;4157917;28;19917;-59
2021/11/15 08:16:05;;;;;;;;;;;;;;;12.46;57.28;102125.34;4157262;28;19952;-59
2021/11/15 08:18:07;;;;;;;;;;;;;;;12.46;57.34;102116.56;4157277;28;19921;-59
2021/11/15 08:20:15;;;;;;;;;;;;;;;12.45;57.24;102113.06;4156747;28;19917;-59
2021/11/15 08:22:16;;;;;;;;;;;;;;;12.46;57.22;102120.06;4157365;28;20260;-59
2021/11/15 08:24:25;;;;;;;;;;;;;;;12.45;57.69;102118.34;4157591;28;19917;-59
2021/11/15 08:26:29;;;;;;;;;;;;;;;12.47;57.54;102118.31;4155034;28;19992;-59
2021/11/15 08:28:51;;;;;;;;;;;;;;;12.48;57.82;102121.81;4155798;28;19917;-59
2021/11/15 08:30:53;;;;;;;;;;;;;;;12.48;57.53;102125.34;4156039;28;19956;-59
2021/11/15 08:32:56;;;;;;;;;;;;;;;12.49;57.64;102131.47;4157721;28;19917;-59
2021/11/15 08:35:00;;;;;;;;;;;;;;;12.49;57.66;102126.19;4157317;28;19947;-60
2021/11/15 08:37:03;;;;;;;;;;;;;;;12.49;57.44;102127.06;4157505;28;19917;-59
2021/11/15 08:39:11;;;;;;;;;;;;;;;12.50;57.58;102123.50;4157541;28;19924;-59
2021/11/15 08:41:15;;;;;;;;;;;;;;;12.51;57.59;102119.97;4153721;28;19945;-60
2021/11/15 08:43:19;;;;;;;;;;;;;;;12.53;57.40;102119.97;4153876;28;19925;-60
2021/11/15 08:45:23;;;;;;;;;;;;;;;12.53;57.57;102117.31;4153938;28;19917;-61
2021/11/15 08:47:25;;;;;;;;;;;;;;;12.42;57.65;102099.94;4156956;28;19964;-59
2021/11/15 08:49:30;;;;;;;;;;;;;;;12.56;57.40;102117.25;4157290;28;19917;-60
2021/11/15 08:51:33;;;;;;;;;;;;;;;12.55;57.61;102116.38;4156825;28;20011;-60
2021/11/15 08:53:35;;;;;;;;;;;;;;;12.57;57.38;102118.97;4156878;28;19917;-59
2021/11/15 08:55:37;;;;;;;;;;;;;;;12.57;57.66;102119.84;4156688;28;19918;-59
2021/11/15 08:57:39;;;;;;;;;;;;;;;12.59;57.61;102125.09;4156321;28;19928;-59
2021/11/15 08:59:42;;;;;;;;;;;;;;;12.60;57.80;102126.81;4141231;28;19917;-59
2021/11/15 09:01:44;;;;;;;;;;;;;;;12.61;57.52;102121.53;4156058;28;20320;-59
2021/11/15 09:03:50;;;;;;;;;;;;;;;12.62;57.61;102112.72;4156439;28;20263;-59
2021/11/15 09:05:52;;;;;;;;;;;;;;;12.64;57.82;102115.31;4156021;28;19971;-59
2021/11/15 09:07:54;;;;;;;;;;;;;;;12.65;57.92;102114.41;4155932;28;20128;-59
2021/11/15 09:09:56;;;;;;;;;;;;;;;12.67;57.87;102119.66;4156877;28;19956;-59
2021/11/15 09:12:02;;;;;;;;;;;;;;;12.68;57.62;102113.47;4155354;28;19936;-59
2021/11/15 09:14:04;;;;;;;;;;;;;;;12.69;57.79;102109.94;4156998;28;19921;-59
2021/11/15 09:16:06;;;;;;;;;;;;;;;12.70;57.58;102106.41;4156591;28;19967;-59
2021/11/15 09:18:08;;;;;;;;;;;;;;;12.71;57.78;102116.03;4156803;28;20084;-59
2021/11/15 09:20:11;;;;;;;;;;;;;;;12.72;57.76;102107.22;4156252;28;20401;-59
2021/11/15 09:22:14;;;;;;;;;;;;;;;12.72;57.78;102104.56;4155980;28;20216;-59
2021/11/15 09:24:17;;;;;;;;;;;;;;;12.73;57.64;102106.31;4156652;28;19917;-59
2021/11/15 09:26:23;;;;;;;;;;;;;;;12.73;57.39;102109.81;4156609;28;19917;-60
2021/11/15 09:28:25;;;;;;;;;;;;;;;12.75;57.67;102107.16;4145360;28;19918;-59
2021/11/15 09:30:27;;;;;;;;;;;;;;;12.76;57.65;102120.31;4155212;28;19926;-60
2021/11/15 09:32:29;;;;;;;;;;;;;;;12.77;57.50;102108.84;4156283;28;19963;-60
2021/11/15 09:34:31;;;;;;;;;;;;;;;12.78;57.69;102113.25;4156494;28;19963;-59
2021/11/15 09:36:34;;;;;;;;;;;;;;;12.79;57.69;102108.81;4156432;28;19964;-59
2021/11/15 09:38:36;;;;;;;;;;;;;;;12.81;57.44;102107.00;4156430;28;20210;-59
2021/11/15 09:40:38;;;;;;;;;;;;;;;12.82;57.69;102105.22;4156603;28;19963;-59
2021/11/15 09:42:40;;;;;;;;;;;;;;;12.84;57.67;102111.34;4154759;28;19940;-59
2021/11/15 09:44:43;;;;;;;;;;;;;;;12.87;57.62;102108.66;4156169;28;19932;-59
2021/11/15 09:46:47;;;;;;;;;;;;;;;12.89;57.46;102120.03;4156309;28;19917;-59
2021/11/15 09:48:51;;;;;;;;;;;;;;;12.91;57.75;102115.59;4156498;28;19971;-59
2021/11/15 09:50:54;;;;;;;;;;;;;;;12.93;57.75;102114.66;4154979;28;19925;-60
2021/11/15 09:52:56;;;;;;;;;;;;;;;12.95;57.55;102119.88;4155854;28;19924;-60
2021/11/15 09:54:59;;;;;;;;;;;;;;;12.97;57.42;102131.28;4155913;28;19924;-59
2021/11/15 09:57:10;;;;;;;;;;;;;;;12.99;57.31;102131.25;4136242;28;19921;-59
2021/11/15 09:59:12;;;;;;;;;;;;;;;13.00;57.31;102136.53;4154346;28;20260;-59
2021/11/15 10:01:14;;;;;;;;;;;;;;;13.01;57.52;102132.94;4156102;28;19979;-59
2021/11/15 10:03:17;;;;;;;;;;;;;;;13.01;57.46;102135.59;4155789;28;20275;-59
2021/11/15 10:05:19;;;;;;;;;;;;;;;13.02;57.58;102136.47;4153939;28;19925;-58
2021/11/15 10:07:39;;;;;;;;;;;;;;;13.02;57.42;102129.41;4155714;28;19918;-59
2021/11/15 10:09:42;;;;;;;;;;;;;;;13.04;56.99;102126.75;4154886;28;19917;-59
2021/11/15 10:11:46;;;;;;;;;;;;;;;13.04;56.98;102124.97;4155848;28;19921;-59
2021/11/15 10:13:48;;;;;;;;;;;;;;;13.05;56.94;102124.06;4151967;28;19948;-59
2021/11/15 10:15:58;;;;;;;;;;;;;;;13.06;56.76;102123.16;4155492;28;19917;-59
2021/11/15 10:18:01;;;;;;;;;;;;;;;13.07;56.71;102124.91;4154191;28;19980;-59
2021/11/15 10:20:04;;;;;;;;;;;;;;;13.08;56.78;102121.34;4155458;28;20220;-59
2021/11/15 10:22:06;;;;;;;;;;;;;;;13.08;56.60;102117.84;4155662;28;20080;-59
2021/11/15 10:24:09;;;;;;;;;;;;;;;13.09;56.62;102124.88;4155385;28;20021;-59
2021/11/15 10:26:15;;;;;;;;;;;;;;;13.09;56.44;102117.81;4153168;28;19925;-59
2021/11/15 10:28:21;;;;;;;;;;;;;;;13.09;56.58;102109.88;4155904;28;19918;-59